Time;durP1;ratioP1;P1;durP2;ratioP2;P2;SDS_P1;SDS_P2;PMS_P1;PMS_P2;Temp;Humidity;BMP_temperature;BMP_pressure;BME280_temperature;BME280_humidity;BME280_pressure;Samples;Min_cycle;Max_cycle;Signal;HPM_P1;HPM_P2
2021/12/02 00:01:23;;;;;;;1.38;0.32;;;;;;;2.83;100.00;99020.75;6251509;28;20076;-83
2021/12/02 00:04:27;;;;;;;0.20;0.20;;;;;;;2.63;100.00;99030.34;6251760;28;20447;-83
2021/12/02 00:07:28;;;;;;;0.85;0.40;;;;;;;2.48;100.00;99015.53;6251654;28;20142;-81
2021/12/02 00:10:31;;;;;;;0.75;0.45;;;;;;;2.43;100.00;99025.28;6227980;28;20053;-83
2021/12/02 00:13:41;;;;;;;0.25;0.25;;;;;;;2.44;100.00;99027.78;6227514;28;20464;-84
2021/12/02 00:16:53;;;;;;;3.33;0.93;;;;;;;2.41;100.00;99029.72;6228073;28;20078;-82
2021/12/02 00:23:29;;;;;;;0.17;0.17;;;;;;;2.55;100.00;99032.47;6227528;28;20057;-83
2021/12/02 00:26:32;;;;;;;0.25;0.20;;;;;;;2.58;100.00;99041.84;6227927;28;20054;-82
2021/12/02 00:29:35;;;;;;;7.13;0.40;;;;;;;2.61;100.00;99042.53;6227679;28;20053;-83
2021/12/02 00:32:42;;;;;;;0.50;0.35;;;;;;;2.64;100.00;99054.53;6234373;28;20049;-84
2021/12/02 00:35:45;;;;;;;2.50;0.85;;;;;;;2.67;100.00;99052.59;6250661;28;20183;-83
2021/12/02 00:38:47;;;;;;;5.15;0.32;;;;;;;2.66;100.00;99052.69;6251085;28;20046;-83
2021/12/02 00:41:49;;;;;;;0.57;0.38;;;;;;;2.65;100.00;99061.41;6250649;28;20049;-84
2021/12/02 00:44:51;;;;;;;1.33;0.13;;;;;;;2.70;100.00;99059.41;6251571;28;20050;-82
2021/12/02 00:47:53;;;;;;;6.70;0.57;;;;;;;2.70;100.00;99072.38;6251034;28;20179;-84
2021/12/02 00:50:55;;;;;;;1.02;0.35;;;;;;;2.70;100.00;99073.22;6250983;28;20052;-83
2021/12/02 00:54:04;;;;;;;1.20;0.50;;;;;;;2.65;100.00;99075.19;6250455;28;20420;-83
2021/12/02 00:57:06;;;;;;;1.02;0.20;;;;;;;2.66;100.00;99097.63;6250617;28;20046;-80
2021/12/02 01:00:09;;;;;;;0.13;0.13;;;;;;;2.68;100.00;99084.56;6250736;28;20045;-84
2021/12/02 01:03:10;;;;;;;0.52;0.28;;;;;;;2.71;100.00;99087.03;6250275;28;20046;-83
2021/12/02 01:06:13;;;;;;;0.60;0.43;;;;;;;2.69;100.00;99091.47;6250734;28;20049;-79
2021/12/02 01:09:14;;;;;;;1.52;0.75;;;;;;;2.78;100.00;99097.03;6250974;28;20041;-82
2021/12/02 01:12:16;;;;;;;2.80;0.70;;;;;;;2.79;100.00;99083.16;6250151;28;20061;-82
2021/12/02 01:15:18;;;;;;;0.10;0.10;;;;;;;2.73;100.00;99085.22;6250398;28;20080;-83
2021/12/02 01:18:20;;;;;;;0.20;0.20;;;;;;;2.73;100.00;99099.03;6250460;28;20049;-81
2021/12/02 01:21:25;;;;;;;1.95;0.38;;;;;;;2.72;100.00;99092.13;6248719;28;20053;-81
2021/12/02 01:24:28;;;;;;;1.73;0.45;;;;;;;2.65;100.00;99092.50;6249808;28;20068;-82
2021/12/02 01:27:30;;;;;;;0.20;0.20;;;;;;;2.60;100.00;99097.09;6250108;28;20049;-84
2021/12/02 01:30:33;;;;;;;1.38;0.52;;;;;;;2.60;100.00;99103.09;6249625;28;20048;-83
2021/12/02 01:33:36;;;;;;;0.70;0.45;;;;;;;2.65;100.00;99106.31;6250234;28;20056;-82
2021/12/02 01:36:41;;;;;;;0.30;0.22;;;;;;;2.62;100.00;99114.22;6249067;28;20053;-81
2021/12/02 01:39:42;;;;;;;0.22;0.20;;;;;;;2.63;100.00;99122.84;6249388;28;20049;-82
2021/12/02 01:42:47;;;;;;;0.90;0.30;;;;;;;2.62;100.00;99123.75;6249136;28;20503;-81
2021/12/02 01:45:48;;;;;;;0.00;0.00;;;;;;;2.61;100.00;99129.88;6250523;28;20052;-82
2021/12/02 01:49:00;;;;;;;0.47;0.40;;;;;;;2.73;100.00;99129.31;6250076;28;20049;-81
2021/12/02 01:52:04;;;;;;;0.15;0.15;;;;;;;2.68;100.00;99133.84;6249276;28;20069;-82
2021/12/02 01:55:09;;;;;;;0.32;0.20;;;;;;;2.68;100.00;99137.31;6249480;28;20072;-82
2021/12/02 01:58:20;;;;;;;3.10;0.95;;;;;;;2.76;100.00;99139.50;6250177;28;20049;-82
2021/12/02 02:01:24;;;;;;;1.38;0.55;;;;;;;2.77;100.00;99149.84;6248865;28;20421;-82
2021/12/02 02:04:26;;;;;;;0.85;0.30;;;;;;;2.77;100.00;99159.34;6224678;28;20513;-81
2021/12/02 02:07:33;;;;;;;2.03;0.50;;;;;;;2.82;100.00;99151.34;6224148;28;20053;-82
2021/12/02 02:10:39;;;;;;;3.67;0.65;;;;;;;2.78;100.00;99150.69;6224917;28;20081;-82
2021/12/02 02:13:43;;;;;;;3.55;1.17;;;;;;;2.84;100.00;99145.19;6224663;28;20065;-81
2021/12/02 02:16:44;;;;;;;1.77;0.70;;;;;;;2.80;100.00;99149.66;6224691;28;20516;-82
2021/12/02 02:19:46;;;;;;;0.10;0.10;;;;;;;2.83;100.00;99151.28;6224151;28;20689;-82
2021/12/02 02:22:48;;;;;;;2.13;0.38;;;;;;;2.77;100.00;99161.94;6224298;28;20046;-80
2021/12/02 02:25:50;;;;;;;5.90;0.60;;;;;;;2.78;100.00;99169.66;6224720;28;20077;-81
2021/12/02 02:28:51;;;;;;;0.82;0.30;;;;;;;2.76;100.00;99166.28;6224381;28;20489;-81
2021/12/02 02:31:53;;;;;;;0.45;0.30;;;;;;;2.74;100.00;99168.13;6224398;28;20046;-81
2021/12/02 02:34:54;;;;;;;1.45;0.73;;;;;;;2.66;100.00;99182.38;6247932;28;20049;-82
2021/12/02 02:37:57;;;;;;;0.85;0.38;;;;;;;2.62;100.00;99183.41;6249122;28;20049;-81
2021/12/02 02:41:00;;;;;;;6.72;0.30;;;;;;;2.61;100.00;99174.78;6248939;28;20051;-81
2021/12/02 02:44:03;;;;;;;1.15;0.30;;;;;;;2.59;100.00;99170.56;6249404;28;20412;-81
2021/12/02 02:47:05;;;;;;;5.82;0.20;;;;;;;2.51;100.00;99170.94;6248409;28;20401;-81
2021/12/02 02:50:11;;;;;;;0.85;0.30;;;;;;;2.55;100.00;99164.72;6248876;28;20041;-81
2021/12/02 02:53:18;;;;;;;0.47;0.43;;;;;;;2.54;100.00;99175.97;6249739;28;20048;-81
2021/12/02 02:56:21;;;;;;;1.55;0.77;;;;;;;2.53;100.00;99175.13;6248740;28;20175;-82
2021/12/02 02:59:31;;;;;;;1.33;0.50;;;;;;;2.54;100.00;99187.22;6248093;28;20071;-81
2021/12/02 03:02:39;;;;;;;0.15;0.15;;;;;;;2.50;100.00;99188.25;6245780;28;20046;-82
2021/12/02 03:05:52;;;;;;;0.38;0.30;;;;;;;2.42;100.00;99177.38;6239961;28;20053;-80
2021/12/02 03:09:00;;;;;;;2.33;0.32;;;;;;;2.40;100.00;99192.16;6239903;28;20045;-80
2021/12/02 03:12:08;;;;;;;6.20;0.63;;;;;;;2.37;100.00;99191.47;6240084;28;20061;-80
2021/12/02 03:18:29;;;;;;;0.13;0.13;;;;;;;2.29;100.00;99215.13;6245497;28;20054;-82
2021/12/02 03:21:31;;;;;;;0.63;0.52;;;;;;;2.22;100.00;99218.88;6246042;28;20424;-82
2021/12/02 03:24:34;;;;;;;0.13;0.10;;;;;;;2.18;100.00;99213.03;6246531;28;20057;-81
2021/12/02 03:27:36;;;;;;;0.10;0.10;;;;;;;2.11;100.00;99218.53;6246796;28;20508;-81
2021/12/02 03:30:37;;;;;;;0.52;0.52;;;;;;;2.07;100.00;99214.38;6246421;28;20053;-81
2021/12/02 03:33:40;;;;;;;0.17;0.17;;;;;;;2.02;100.00;99225.78;6246786;28;20052;-82
2021/12/02 03:36:42;;;;;;;0.57;0.57;;;;;;;2.02;100.00;99212.84;6246662;28;20056;-82
2021/12/02 03:39:45;;;;;;;7.63;0.98;;;;;;;1.94;100.00;99217.50;6246179;28;20048;-80
2021/12/02 03:42:49;;;;;;;1.92;0.40;;;;;;;1.88;100.00;99214.34;6247355;28;20057;-81
2021/12/02 03:45:50;;;;;;;0.20;0.20;;;;;;;1.95;100.00;99213.16;6250174;28;20064;-81
2021/12/02 03:48:54;;;;;;;0.50;0.28;;;;;;;1.90;100.00;99215.94;6250186;28;20049;-80
2021/12/02 03:51:56;;;;;;;1.15;0.60;;;;;;;1.89;100.00;99214.25;6250368;28;20041;-80
2021/12/02 03:54:59;;;;;;;0.30;0.30;;;;;;;1.93;100.00;99215.81;6250391;28;20218;-81
2021/12/02 03:58:00;;;;;;;2.55;0.50;;;;;;;1.83;100.00;99217.13;6250649;28;20045;-81
2021/12/02 04:01:01;;;;;;;0.13;0.10;;;;;;;1.84;100.00;99225.72;6248729;28;20049;-81
2021/12/02 04:04:03;;;;;;;6.57;0.65;;;;;;;1.91;100.00;99219.41;6243767;28;20405;-80
2021/12/02 04:07:04;;;;;;;0.20;0.20;;;;;;;1.86;100.00;99224.75;6249723;28;20045;-82
2021/12/02 04:10:08;;;;;;;0.63;0.52;;;;;;;1.90;100.00;99225.47;6249449;28;20411;-81
2021/12/02 04:13:18;;;;;;;0.68;0.35;;;;;;;1.88;100.00;99237.66;6248888;28;20057;-80
2021/12/02 04:16:20;;;;;;;0.52;0.30;;;;;;;1.83;100.00;99243.03;6250704;28;20045;-81
2021/12/02 04:19:23;;;;;;;1.48;0.55;;;;;;;1.88;100.00;99253.19;6246676;28;20534;-81
2021/12/02 04:22:25;;;;;;;0.00;0.00;;;;;;;1.88;100.00;99250.59;6248116;28;20049;-80
2021/12/02 04:25:28;;;;;;;3.70;0.40;;;;;;;1.85;100.00;99258.50;6248507;28;20618;-82
2021/12/02 04:28:29;;;;;;;0.28;0.28;;;;;;;1.80;100.00;99260.44;6250355;28;20057;-81
2021/12/02 04:31:31;;;;;;;0.75;0.65;;;;;;;1.82;100.00;99261.19;6253875;28;20649;-81
2021/12/02 04:34:32;;;;;;;0.75;0.52;;;;;;;1.79;100.00;99259.59;6257509;28;20492;-81
2021/12/02 04:37:33;;;;;;;0.60;0.35;;;;;;;1.75;100.00;99258.03;6260002;28;20564;-80
2021/12/02 04:40:40;;;;;;;0.17;0.17;;;;;;;1.71;100.00;99256.47;6248706;28;20045;-81
2021/12/02 04:43:42;;;;;;;0.95;0.40;;;;;;;1.70;100.00;99257.38;6246655;28;20053;-81
2021/12/02 04:46:43;;;;;;;2.60;0.40;;;;;;;1.68;100.00;99261.75;6250986;28;20049;-81
2021/12/02 04:49:45;;;;;;;0.20;0.10;;;;;;;1.64;100.00;99255.06;6247744;28;20048;-80
2021/12/02 04:52:46;;;;;;;0.10;0.10;;;;;;;1.64;100.00;99258.47;6249267;28;20103;-82
2021/12/02 04:55:49;;;;;;;0.30;0.30;;;;;;;1.62;100.00;99262.88;6248163;28;20046;-81
2021/12/02 04:58:50;;;;;;;0.80;0.32;;;;;;;1.55;100.00;99274.38;6248617;28;20042;-80
2021/12/02 05:01:51;;;;;;;0.20;0.20;;;;;;;1.56;100.00;99276.06;6247993;28;20042;-80
2021/12/02 05:04:54;;;;;;;5.97;0.45;;;;;;;1.59;100.00;99282.84;6248138;28;20045;-80
2021/12/02 05:07:59;;;;;;;1.33;0.88;;;;;;;1.53;100.00;99277.03;6247853;28;20053;-81
2021/12/02 05:11:01;;;;;;;0.88;0.40;;;;;;;1.49;100.00;99277.19;6248249;28;20041;-81
2021/12/02 05:14:03;;;;;;;0.15;0.15;;;;;;;1.48;100.00;99278.13;6247199;28;20052;-80
2021/12/02 05:17:04;;;;;;;2.65;0.50;;;;;;;1.44;100.00;99285.16;6244691;28;20049;-82
2021/12/02 05:20:07;;;;;;;1.95;0.43;;;;;;;1.50;100.00;99286.69;6245657;28;20041;-81
2021/12/02 05:23:08;;;;;;;3.70;0.73;;;;;;;1.49;100.00;99283.22;6247843;28;20046;-81
2021/12/02 05:26:11;;;;;;;0.30;0.20;;;;;;;1.47;100.00;99302.31;6248734;28;20050;-81
2021/12/02 05:29:12;;;;;;;1.30;0.40;;;;;;;1.42;100.00;99304.25;6248852;28;20394;-81
2021/12/02 05:32:13;;;;;;;0.10;0.10;;;;;;;1.41;100.00;99312.91;6246220;28;20041;-80
2021/12/02 05:35:15;;;;;;;2.55;1.10;;;;;;;1.43;100.00;99309.34;6248235;28;20397;-82
2021/12/02 05:38:16;;;;;;;0.30;0.30;;;;;;;1.46;100.00;99313.59;6246596;28;20049;-81
2021/12/02 05:41:19;;;;;;;0.20;0.20;;;;;;;1.47;100.00;99320.44;6248271;28;20408;-82
2021/12/02 05:44:20;;;;;;;0.35;0.17;;;;;;;1.40;100.00;99325.00;6248107;28;20405;-81
2021/12/02 05:47:22;;;;;;;0.20;0.20;;;;;;;1.40;100.00;99324.16;6239601;28;20045;-81
2021/12/02 05:50:23;;;;;;;9.30;1.23;;;;;;;1.34;100.00;99325.25;6247769;28;20050;-81
2021/12/02 05:53:25;;;;;;;0.32;0.30;;;;;;;1.34;100.00;99333.00;6247283;28;20048;-81
2021/12/02 05:56:27;;;;;;;0.75;0.70;;;;;;;1.35;100.00;99332.09;6245859;28;20509;-81
2021/12/02 05:59:29;;;;;;;0.03;0.03;;;;;;;1.35;100.00;99352.81;6245893;28;20046;-82
2021/12/02 06:02:30;;;;;;;0.10;0.10;;;;;;;1.39;100.00;99361.31;6247540;28;20060;-80
2021/12/02 06:05:31;;;;;;;0.88;0.20;;;;;;;1.41;100.00;99365.53;6247707;28;20046;-81
2021/12/02 06:08:34;;;;;;;0.40;0.40;;;;;;;1.40;100.00;99374.16;6248255;28;20045;-80
2021/12/02 06:11:36;;;;;;;0.80;0.52;;;;;;;1.39;100.00;99375.06;6247992;28;20560;-81
2021/12/02 06:14:38;;;;;;;0.77;0.20;;;;;;;1.42;100.00;99380.16;6248281;28;20061;-81
2021/12/02 06:17:39;;;;;;;0.30;0.20;;;;;;;1.45;100.00;99384.34;6246893;28;20053;-81
2021/12/02 06:20:40;;;;;;;3.22;0.30;;;;;;;1.43;100.00;99391.34;6246690;28;20049;-81
2021/12/02 06:23:42;;;;;;;2.75;0.70;;;;;;;1.46;100.00;99394.66;6247162;28;20507;-81
2021/12/02 06:26:45;;;;;;;0.10;0.10;;;;;;;1.48;100.00;99405.78;6246700;28;20045;-81
2021/12/02 06:29:46;;;;;;;0.47;0.28;;;;;;;1.45;100.00;99400.75;6246900;28;20041;-81
2021/12/02 06:32:48;;;;;;;0.10;0.10;;;;;;;1.50;100.00;99405.75;6246540;28;20050;-81
2021/12/02 06:35:50;;;;;;;0.65;0.52;;;;;;;1.52;100.00;99411.72;6247522;28;20049;-81
2021/12/02 06:38:51;;;;;;;0.60;0.60;;;;;;;1.53;100.00;99411.63;6246886;28;20054;-81
2021/12/02 06:41:55;;;;;;;4.40;0.38;;;;;;;1.54;100.00;99422.84;6249647;28;20045;-81
2021/12/02 06:44:57;;;;;;;0.40;0.40;;;;;;;1.55;100.00;99431.47;6259409;28;20045;-81
2021/12/02 06:48:00;;;;;;;0.10;0.10;;;;;;;1.59;100.00;99433.88;6259212;28;20045;-82
2021/12/02 06:51:01;;;;;;;0.77;0.40;;;;;;;1.60;100.00;99434.72;6256077;28;20042;-81
2021/12/02 06:54:04;;;;;;;2.72;0.50;;;;;;;1.58;100.00;99437.34;6256266;28;20049;-81
2021/12/02 06:57:08;;;;;;;3.85;0.63;;;;;;;1.58;100.00;99452.88;6257445;28;20055;-81
2021/12/02 07:00:12;;;;;;;0.90;0.40;;;;;;;1.62;100.00;99461.38;6255098;28;20041;-81
2021/12/02 07:03:14;;;;;;;0.38;0.38;;;;;;;1.63;100.00;99447.53;6246894;28;20056;-81
2021/12/02 07:06:15;;;;;;;1.98;0.30;;;;;;;1.64;100.00;99467.38;6244004;28;20045;-81
2021/12/02 07:09:17;;;;;;;2.33;0.60;;;;;;;1.67;100.00;99469.81;6241248;28;20079;-81
2021/12/02 07:12:28;;;;;;;0.40;0.20;;;;;;;1.65;100.00;99464.72;6247375;28;20052;-81
2021/12/02 07:15:31;;;;;;;1.83;0.65;;;;;;;1.65;100.00;99469.06;6256822;28;20527;-81
2021/12/02 07:18:36;;;;;;;4.78;0.60;;;;;;;1.68;100.00;99471.50;6249613;28;20496;-80
2021/12/02 07:21:40;;;;;;;2.20;0.80;;;;;;;1.70;100.00;99480.06;6259068;28;20048;-80
2021/12/02 07:24:41;;;;;;;0.38;0.25;;;;;;;1.70;100.00;99480.06;6263109;28;20084;-81
2021/12/02 07:27:44;;;;;;;0.65;0.45;;;;;;;1.75;100.00;99480.75;6262743;28;20045;-80
2021/12/02 07:30:52;;;;;;;1.33;0.20;;;;;;;1.81;100.00;99485.69;6261662;28;20045;-81
2021/12/02 07:33:54;;;;;;;0.20;0.20;;;;;;;1.82;100.00;99492.56;6259894;28;20128;-81
2021/12/02 07:36:56;;;;;;;0.10;0.10;;;;;;;1.82;100.00;99494.28;6251460;28;20424;-81
2021/12/02 07:39:59;;;;;;;0.55;0.30;;;;;;;1.85;100.00;99496.78;6248813;28;20049;-81
2021/12/02 07:43:03;;;;;;;0.20;0.20;;;;;;;1.78;100.00;99497.03;6251413;28;20048;-80
2021/12/02 07:46:05;;;;;;;1.55;0.40;;;;;;;1.82;100.00;99505.53;6250133;28;20672;-80
2021/12/02 07:49:10;;;;;;;0.25;0.22;;;;;;;1.82;100.00;99502.94;6251195;28;20050;-81
2021/12/02 07:52:13;;;;;;;0.68;0.40;;;;;;;1.84;100.00;99508.88;6252513;28;20054;-81
2021/12/02 07:55:16;;;;;;;0.30;0.20;;;;;;;1.89;100.00;99509.56;6251499;28;20059;-81
2021/12/02 07:58:21;;;;;;;0.20;0.20;;;;;;;1.91;100.00;99517.28;6244750;28;20049;-82
2021/12/02 08:01:22;;;;;;;0.95;0.68;;;;;;;1.95;100.00;99526.59;6246708;28;20037;-80
2021/12/02 08:04:24;;;;;;;0.45;0.32;;;;;;;1.95;100.00;99536.97;6252020;28;20061;-80
2021/12/02 08:07:25;;;;;;;0.75;0.25;;;;;;;1.96;100.00;99538.69;6251981;28;20420;-83
2021/12/02 08:10:28;;;;;;;0.60;0.57;;;;;;;1.98;100.00;99550.66;6251883;28;20049;-81
2021/12/02 08:13:31;;;;;;;2.78;0.30;;;;;;;2.02;100.00;99549.66;6253613;28;20056;-80
2021/12/02 08:16:32;;;;;;;1.02;0.30;;;;;;;2.06;100.00;99558.16;6251681;28;20049;-81
2021/12/02 08:19:33;;;;;;;1.77;0.77;;;;;;;2.08;100.00;99561.50;6250748;28;20052;-81
2021/12/02 08:22:35;;;;;;;3.13;0.80;;;;;;;2.09;100.00;99571.00;6250278;28;20056;-81
2021/12/02 08:25:36;;;;;;;0.40;0.40;;;;;;;2.12;100.00;99563.09;6250744;28;20404;-80
2021/12/02 08:28:39;;;;;;;0.45;0.25;;;;;;;2.07;100.00;99574.53;6252792;28;20053;-80
2021/12/02 08:31:40;;;;;;;2.58;0.30;;;;;;;2.08;100.00;99576.22;6233909;28;20046;-79
2021/12/02 08:34:42;;;;;;;0.50;0.50;;;;;;;2.06;100.00;99580.63;6226283;28;20057;-80
2021/12/02 08:37:45;;;;;;;0.55;0.50;;;;;;;2.09;100.00;99578.78;6225923;28;20045;-80
2021/12/02 08:40:48;;;;;;;0.60;0.40;;;;;;;2.10;100.00;99585.66;6225370;28;20042;-81
2021/12/02 08:43:52;;;;;;;3.30;0.68;;;;;;;2.15;100.00;99580.28;6225191;28;20058;-80
2021/12/02 08:46:54;;;;;;;0.68;0.60;;;;;;;2.19;100.00;99584.47;6225581;28;20132;-83
2021/12/02 08:49:58;;;;;;;5.35;1.23;;;;;;;2.18;100.00;99580.16;6227204;28;20424;-79
2021/12/02 08:53:01;;;;;;;0.40;0.40;;;;;;;2.15;100.00;99581.13;6244328;28;20050;-81
2021/12/02 08:56:02;;;;;;;0.82;0.63;;;;;;;2.17;100.00;99584.50;6237569;28;20042;-81
2021/12/02 08:59:07;;;;;;;0.80;0.40;;;;;;;2.15;100.00;99596.69;6250089;28;20053;-80
2021/12/02 09:02:08;;;;;;;1.13;0.60;;;;;;;2.21;100.00;99604.22;6249674;28;20042;-81
2021/12/02 09:05:10;;;;;;;1.58;0.82;;;;;;;2.27;100.00;99603.13;6248939;28;20500;-81
2021/12/02 09:08:13;;;;;;;0.75;0.60;;;;;;;2.31;100.00;99598.69;6248969;28;20477;-81
2021/12/02 09:11:15;;;;;;;0.20;0.20;;;;;;;2.34;100.00;99602.00;6249926;28;20045;-80
2021/12/02 09:14:17;;;;;;;0.68;0.60;;;;;;;2.36;100.00;99602.78;6250565;28;20416;-80
2021/12/02 09:17:19;;;;;;;0.43;0.35;;;;;;;2.35;100.00;99611.47;6249809;28;20536;-80
2021/12/02 09:20:21;;;;;;;0.85;0.80;;;;;;;2.32;100.00;99618.50;6249496;28;20045;-81
2021/12/02 09:23:22;;;;;;;0.68;0.50;;;;;;;2.34;100.00;99625.34;6249415;28;20050;-80
2021/12/02 09:26:23;;;;;;;1.05;0.57;;;;;;;2.39;100.00;99626.00;6248356;28;20050;-81
2021/12/02 09:29:26;;;;;;;1.95;1.02;;;;;;;2.46;100.00;99627.47;6248503;28;20417;-81
2021/12/02 09:32:28;;;;;;;1.08;0.63;;;;;;;2.47;100.00;99636.09;6249442;28;20080;-81
2021/12/02 09:35:29;;;;;;;3.47;0.85;;;;;;;2.45;100.00;99632.69;6249613;28;20049;-81
2021/12/02 09:38:31;;;;;;;1.58;0.90;;;;;;;2.45;100.00;99640.47;6249222;28;20056;-80
2021/12/02 09:41:32;;;;;;;0.57;0.55;;;;;;;2.49;100.00;99645.50;6247958;28;20507;-80
2021/12/02 09:44:35;;;;;;;0.50;0.40;;;;;;;2.42;100.00;99653.56;6249433;28;20144;-79
2021/12/02 09:47:39;;;;;;;1.42;0.60;;;;;;;2.39;100.00;99654.53;6248426;28;20148;-80
2021/12/02 09:50:50;;;;;;;2.78;0.73;;;;;;;2.40;100.00;99657.97;6248261;28;20056;-81
2021/12/02 09:53:55;;;;;;;1.20;0.60;;;;;;;2.38;100.00;99659.78;6248547;28;20135;-79
2021/12/02 09:57:01;;;;;;;0.63;0.43;;;;;;;2.34;100.00;99655.59;6248759;28;20124;-79
2021/12/02 10:00:06;;;;;;;0.40;0.40;;;;;;;2.42;100.00;99651.81;6248428;28;20048;-80
2021/12/02 10:03:18;;;;;;;0.57;0.57;;;;;;;2.50;100.00;99659.31;6249524;28;20465;-80
2021/12/02 10:06:22;;;;;;;0.70;0.57;;;;;;;2.59;100.00;99652.91;6258206;28;20050;-80
2021/12/02 10:09:27;;;;;;;3.10;0.95;;;;;;;2.69;100.00;99662.91;6250819;28;20045;-81
2021/12/02 10:12:30;;;;;;;1.17;0.90;;;;;;;2.80;100.00;99665.91;6249501;28;20045;-80
2021/12/02 10:15:36;;;;;;;2.15;0.80;;;;;;;2.85;100.00;99667.47;6249500;28;20191;-80
2021/12/02 10:18:48;;;;;;;1.05;0.55;;;;;;;2.86;100.00;99669.16;6248636;28;20053;-80
2021/12/02 10:21:55;;;;;;;1.38;0.68;;;;;;;2.80;100.00;99675.44;6248571;28;20053;-79
2021/12/02 10:24:56;;;;;;;0.70;0.40;;;;;;;2.72;100.00;99673.13;6249393;28;20049;-79
2021/12/02 10:28:08;;;;;;;1.30;0.57;;;;;;;2.68;100.00;99678.50;6225200;28;20050;-79
2021/12/02 10:31:17;;;;;;;0.55;0.52;;;;;;;2.62;100.00;99679.59;6223727;28;20048;-81
2021/12/02 10:34:19;;;;;;;1.55;0.90;;;;;;;2.59;100.00;99689.22;6226546;28;20054;-80
2021/12/02 10:37:23;;;;;;;0.70;0.70;;;;;;;2.49;100.00;99692.16;6225714;28;20145;-79
2021/12/02 10:40:25;;;;;;;1.85;0.70;;;;;;;2.50;100.00;99691.28;6225667;28;20486;-81
2021/12/02 10:43:27;;;;;;;0.65;0.50;;;;;;;2.57;100.00;99691.88;6244366;28;20496;-80
2021/12/02 10:46:29;;;;;;;1.70;0.70;;;;;;;2.49;100.00;99699.94;6248275;28;20060;-81
2021/12/02 10:49:34;;;;;;;1.50;1.20;;;;;;;2.52;100.00;99705.03;6248495;28;20409;-80
2021/12/02 10:52:37;;;;;;;0.50;0.50;;;;;;;2.61;100.00;99706.44;6251676;28;20060;-79
2021/12/02 10:55:38;;;;;;;1.30;1.13;;;;;;;2.59;100.00;99702.19;6254109;28;20067;-80
2021/12/02 10:58:39;;;;;;;0.60;0.50;;;;;;;2.61;100.00;99706.44;6230090;28;20425;-81
2021/12/02 11:01:42;;;;;;;1.75;0.80;;;;;;;2.62;100.00;99713.31;6252862;28;20045;-80
2021/12/02 11:04:45;;;;;;;1.73;0.90;;;;;;;2.61;100.00;99713.38;6253424;28;20049;-83
2021/12/02 11:07:53;;;;;;;1.45;0.60;;;;;;;2.57;100.00;99714.38;6251892;28;20132;-80
2021/12/02 11:10:54;;;;;;;2.28;0.52;;;;;;;2.57;100.00;99710.03;6252700;28;20052;-82
2021/12/02 11:13:56;;;;;;;0.95;0.50;;;;;;;2.65;100.00;99723.56;6252696;28;20084;-81
2021/12/02 11:17:07;;;;;;;0.65;0.60;;;;;;;2.70;100.00;99721.66;6253100;28;20057;-79
2021/12/02 11:20:11;;;;;;;1.10;0.68;;;;;;;2.75;100.00;99724.06;6253498;28;20133;-79
2021/12/02 11:23:15;;;;;;;0.90;0.68;;;;;;;2.86;100.00;99723.66;6253192;28;20049;-80
2021/12/02 11:26:18;;;;;;;1.90;1.10;;;;;;;2.90;100.00;99725.22;6238737;28;20501;-78
2021/12/02 11:29:20;;;;;;;1.00;0.82;;;;;;;2.87;100.00;99723.63;6227205;28;20195;-78
2021/12/02 11:32:30;;;;;;;2.00;1.30;;;;;;;2.96;100.00;99732.81;6227025;28;20405;-78
2021/12/02 11:35:34;;;;;;;1.38;0.70;;;;;;;2.96;100.00;99725.84;6226904;28;20057;-81
2021/12/02 11:38:36;;;;;;;0.90;0.70;;;;;;;2.95;100.00;99721.56;6229189;28;20048;-81
2021/12/02 11:41:37;;;;;;;1.08;0.40;;;;;;;2.85;100.00;99720.22;6229600;28;20046;-79
2021/12/02 11:44:39;;;;;;;1.05;0.73;;;;;;;2.84;100.00;99721.13;6250132;28;20049;-79
2021/12/02 11:47:42;;;;;;;1.00;0.70;;;;;;;2.92;100.00;99726.88;6227156;28;20061;-79
2021/12/02 11:50:44;;;;;;;2.22;1.08;;;;;;;2.91;100.00;99729.53;6227010;28;20046;-78
2021/12/02 11:53:46;;;;;;;0.98;0.73;;;;;;;2.92;100.00;99742.44;6226688;28;20045;-79
2021/12/02 11:56:47;;;;;;;1.27;0.93;;;;;;;3.06;100.00;99744.50;6226582;28;20057;-79
2021/12/02 11:59:49;;;;;;;0.55;0.45;;;;;;;3.04;100.00;99741.97;6233211;28;20042;-78
2021/12/02 12:02:56;;;;;;;0.55;0.55;;;;;;;3.09;100.00;99744.41;6251033;28;20045;-79
2021/12/02 12:06:00;;;;;;;4.60;0.95;;;;;;;3.06;100.00;99744.50;6250842;28;20628;-79
2021/12/02 12:09:10;;;;;;;1.77;1.13;;;;;;;3.08;100.00;99755.66;6252032;28;20057;-78
2021/12/02 12:12:11;;;;;;;1.58;0.93;;;;;;;3.19;100.00;99766.50;6251073;28;20041;-80
2021/12/02 12:15:39;;;;;;;1.00;0.70;;;;;;;3.20;100.00;99762.97;6247333;28;20065;-77
2021/12/02 12:18:41;;;;;;;6.65;0.80;;;;;;;3.13;100.00;99768.47;6226505;28;20437;-79
2021/12/02 12:21:45;;;;;;;0.85;0.65;;;;;;;3.04;100.00;99778.31;6252256;28;20037;-78
2021/12/02 12:24:48;;;;;;;1.23;1.02;;;;;;;3.13;100.00;99777.09;6261362;28;20511;-78
2021/12/02 12:27:58;;;;;;;5.43;0.75;;;;;;;3.22;100.00;99783.69;6251762;28;20055;-76
2021/12/02 12:31:05;;;;;;;1.30;0.70;;;;;;;3.14;100.00;99785.75;6249942;28;20262;-78
2021/12/02 12:34:47;;;;;;;2.17;1.38;;;;;;;3.13;100.00;99794.41;6248746;28;20509;-77
2021/12/02 12:38:01;;;;;;;0.52;0.40;;;;;;;2.82;100.00;99799.91;6249372;28;20052;-78
2021/12/02 12:41:13;;;;;;;0.10;0.10;;;;;;;2.37;100.00;99816.25;6248892;28;20045;-76
2021/12/02 12:44:14;;;;;;;0.10;0.10;;;;;;;2.15;100.00;99819.56;6249010;28;20052;-78
2021/12/02 12:47:17;;;;;;;0.10;0.10;;;;;;;2.06;100.00;99830.22;6248773;28;20045;-79
2021/12/02 12:50:25;;;;;;;0.17;0.17;;;;;;;2.07;100.00;99825.88;6249693;28;20052;-79
2021/12/02 12:53:38;;;;;;;0.55;0.30;;;;;;;2.05;100.00;99844.09;6250630;28;20050;-79
2021/12/02 12:56:41;;;;;;;0.15;0.15;;;;;;;1.90;100.00;99837.63;6250333;28;20421;-79
2021/12/02 12:59:49;;;;;;;0.10;0.10;;;;;;;1.64;100.00;99845.41;6249749;28;20128;-79
2021/12/02 13:02:53;;;;;;;0.28;0.20;;;;;;;1.47;100.00;99846.78;6249505;28;20493;-79
2021/12/02 13:06:05;;;;;;;0.10;0.10;;;;;;;1.28;100.00;99856.00;6249126;28;20096;-79
2021/12/02 13:09:07;;;;;;;0.08;0.08;;;;;;;1.26;100.00;99856.03;6250136;28;20052;-79
2021/12/02 13:12:12;;;;;;;0.32;0.32;;;;;;;1.12;100.00;99850.41;6249753;28;20042;-80
2021/12/02 13:15:18;;;;;;;0.32;0.32;;;;;;;1.02;100.00;99851.56;6264749;28;20519;-78
2021/12/02 13:18:32;;;;;;;1.13;0.52;;;;;;;1.09;100.00;99857.41;6252021;28;20136;-78
2021/12/02 13:21:35;;;;;;;0.13;0.13;;;;;;;1.14;100.00;99871.09;6230573;28;20049;-77
2021/12/02 13:24:38;;;;;;;0.20;0.20;;;;;;;1.19;100.00;99870.06;6224509;28;20085;-77
2021/12/02 13:27:39;;;;;;;0.30;0.30;;;;;;;1.23;100.00;99866.50;6224776;28;20084;-78
2021/12/02 13:30:41;;;;;;;0.05;0.05;;;;;;;1.09;100.00;99865.16;6224313;28;20074;-77
2021/12/02 13:33:44;;;;;;;0.10;0.10;;;;;;;1.09;100.00;99866.03;6224270;28;20511;-78
2021/12/02 13:36:50;;;;;;;0.13;0.08;;;;;;;1.17;100.00;99871.81;6224021;28;20465;-80
2021/12/02 13:39:52;;;;;;;1.65;0.20;;;;;;;1.27;100.00;99869.81;6224103;28;20061;-79
2021/12/02 13:42:58;;;;;;;0.13;0.10;;;;;;;1.41;100.00;99874.56;6223894;28;20041;-79
2021/12/02 13:46:10;;;;;;;0.20;0.05;;;;;;;1.51;98.53;99883.78;6224454;28;20050;-78
2021/12/02 13:49:14;;;;;;;0.20;0.20;;;;;;;1.54;94.55;99886.25;6225306;28;20050;-79
2021/12/02 13:52:27;;;;;;;0.30;0.30;;;;;;;1.61;91.52;99887.78;6224038;28;20042;-79
2021/12/02 13:55:30;;;;;;;0.93;0.20;;;;;;;1.65;93.94;99897.16;6229502;28;20073;-79
2021/12/02 13:58:32;;;;;;;0.20;0.20;;;;;;;1.61;93.05;99892.97;6246872;28;20053;-77
2021/12/02 14:01:34;;;;;;;0.28;0.20;;;;;;;1.65;92.74;99897.16;6247158;28;20042;-78
2021/12/02 14:04:46;;;;;;;0.20;0.20;;;;;;;1.74;93.73;99899.47;6248024;28;20049;-79
2021/12/02 14:07:49;;;;;;;0.40;0.40;;;;;;;1.82;86.60;99899.22;6248116;28;20056;-78
2021/12/02 14:10:52;;;;;;;1.35;0.32;;;;;;;1.84;90.19;99894.84;6247916;28;20060;-79
2021/12/02 14:13:56;;;;;;;0.85;0.30;;;;;;;1.89;85.78;99912.81;6248250;28;20052;-80
2021/12/02 14:17:04;;;;;;;0.20;0.20;;;;;;;1.96;80.56;99912.59;6248721;28;20049;-80
2021/12/02 14:20:09;;;;;;;0.43;0.30;;;;;;;1.94;77.05;99924.75;6224302;28;20045;-78
2021/12/02 14:23:14;;;;;;;0.30;0.30;;;;;;;1.97;78.04;99932.44;6222777;28;20041;-78
2021/12/02 14:26:18;;;;;;;1.65;0.13;;;;;;;1.99;80.74;99938.41;6223114;28;20517;-78
2021/12/02 14:29:19;;;;;;;0.10;0.10;;;;;;;2.03;79.72;99946.94;6222851;28;20512;-78
2021/12/02 14:32:20;;;;;;;0.13;0.13;;;;;;;1.98;82.61;99944.47;6222730;28;20053;-78